sensor_id;sensor_type;location;lat;lon;timestamp;P1;durP1;ratioP1;P2;durP2;ratioP2
77736;SDS011;66903;59.926;30.404;2023-05-10T00:03:59;3.05;;;0.90;;
77736;SDS011;66903;59.926;30.404;2023-05-10T00:08:59;2.15;;;0.88;;
77736;SDS011;66903;59.926;30.404;2023-05-10T00:14:00;2.65;;;1.02;;
77736;SDS011;66903;59.926;30.404;2023-05-10T00:19:00;2.20;;;0.80;;
77736;SDS011;66903;59.926;30.404;2023-05-10T00:24:01;2.85;;;0.85;;
77736;SDS011;66903;59.926;30.404;2023-05-10T00:29:02;3.20;;;0.82;;
77736;SDS011;66903;59.926;30.404;2023-05-10T00:34:02;2.63;;;0.90;;
77736;SDS011;66903;59.926;30.404;2023-05-10T00:39:03;3.00;;;0.88;;
77736;SDS011;66903;59.926;30.404;2023-05-10T00:44:03;3.05;;;0.93;;
77736;SDS011;66903;59.926;30.404;2023-05-10T00:49:04;3.05;;;1.00;;
77736;SDS011;66903;59.926;30.404;2023-05-10T00:54:05;3.45;;;1.17;;
77736;SDS011;66903;59.926;30.404;2023-05-10T00:59:07;2.80;;;0.90;;
77736;SDS011;66903;59.926;30.404;2023-05-10T01:04:09;3.10;;;0.95;;
77736;SDS011;66903;59.926;30.404;2023-05-10T01:09:12;5.55;;;1.00;;
77736;SDS011;66903;59.926;30.404;2023-05-10T01:14:13;3.20;;;0.95;;
77736;SDS011;66903;59.926;30.404;2023-05-10T01:19:28;3.83;;;1.05;;
77736;SDS011;66903;59.926;30.404;2023-05-10T01:24:44;3.28;;;1.02;;
77736;SDS011;66903;59.926;30.404;2023-05-10T01:40:26;3.45;;;1.00;;
77736;SDS011;66903;59.926;30.404;2023-05-10T01:51:10;4.00;;;1.30;;
77736;SDS011;66903;59.926;30.404;2023-05-10T01:56:12;3.80;;;1.25;;
77736;SDS011;66903;59.926;30.404;2023-05-10T02:01:14;2.85;;;1.05;;
77736;SDS011;66903;59.926;30.404;2023-05-10T02:06:16;3.95;;;1.40;;
77736;SDS011;66903;59.926;30.404;2023-05-10T02:11:20;3.80;;;1.20;;
77736;SDS011;66903;59.926;30.404;2023-05-10T02:16:23;3.50;;;1.20;;
77736;SDS011;66903;59.926;30.404;2023-05-10T02:21:26;4.07;;;1.27;;
77736;SDS011;66903;59.926;30.404;2023-05-10T02:26:29;4.57;;;1.30;;
77736;SDS011;66903;59.926;30.404;2023-05-10T02:31:32;3.63;;;1.27;;
77736;SDS011;66903;59.926;30.404;2023-05-10T02:36:33;3.05;;;1.02;;
77736;SDS011;66903;59.926;30.404;2023-05-10T02:41:35;3.10;;;0.88;;
77736;SDS011;66903;59.926;30.404;2023-05-10T02:46:37;3.70;;;1.20;;
77736;SDS011;66903;59.926;30.404;2023-05-10T02:51:40;4.93;;;1.40;;
77736;SDS011;66903;59.926;30.404;2023-05-10T02:56:49;3.50;;;1.10;;
77736;SDS011;66903;59.926;30.404;2023-05-10T03:01:53;4.53;;;1.30;;
77736;SDS011;66903;59.926;30.404;2023-05-10T03:06:54;4.43;;;1.08;;
77736;SDS011;66903;59.926;30.404;2023-05-10T03:11:56;3.88;;;1.20;;
77736;SDS011;66903;59.926;30.404;2023-05-10T03:17:52;5.07;;;1.40;;
77736;SDS011;66903;59.926;30.404;2023-05-10T03:22:50;3.38;;;1.20;;
77736;SDS011;66903;59.926;30.404;2023-05-10T03:27:55;3.60;;;1.30;;
77736;SDS011;66903;59.926;30.404;2023-05-10T03:32:57;3.63;;;1.23;;
77736;SDS011;66903;59.926;30.404;2023-05-10T03:37:58;3.55;;;1.08;;
77736;SDS011;66903;59.926;30.404;2023-05-10T03:42:58;6.18;;;1.45;;
77736;SDS011;66903;59.926;30.404;2023-05-10T03:47:59;3.38;;;1.30;;
77736;SDS011;66903;59.926;30.404;2023-05-10T03:53:00;3.92;;;1.17;;
77736;SDS011;66903;59.926;30.404;2023-05-10T03:58:00;5.10;;;1.20;;
77736;SDS011;66903;59.926;30.404;2023-05-10T04:03:01;6.05;;;1.52;;
77736;SDS011;66903;59.926;30.404;2023-05-10T04:08:01;4.90;;;1.30;;
77736;SDS011;66903;59.926;30.404;2023-05-10T04:13:02;4.28;;;1.45;;
77736;SDS011;66903;59.926;30.404;2023-05-10T04:18:03;2.95;;;1.10;;
77736;SDS011;66903;59.926;30.404;2023-05-10T04:23:03;4.50;;;1.38;;
77736;SDS011;66903;59.926;30.404;2023-05-10T04:28:04;3.63;;;1.27;;
77736;SDS011;66903;59.926;30.404;2023-05-10T04:33:05;7.10;;;1.48;;
77736;SDS011;66903;59.926;30.404;2023-05-10T04:38:05;4.28;;;1.35;;
77736;SDS011;66903;59.926;30.404;2023-05-10T04:43:06;4.50;;;1.50;;
77736;SDS011;66903;59.926;30.404;2023-05-10T04:48:06;4.47;;;1.85;;
77736;SDS011;66903;59.926;30.404;2023-05-10T04:53:07;3.67;;;1.20;;
77736;SDS011;66903;59.926;30.404;2023-05-10T04:58:08;4.57;;;1.40;;
77736;SDS011;66903;59.926;30.404;2023-05-10T05:03:08;3.97;;;1.38;;
77736;SDS011;66903;59.926;30.404;2023-05-10T05:08:09;4.10;;;1.23;;
77736;SDS011;66903;59.926;30.404;2023-05-10T05:13:10;5.43;;;1.70;;
77736;SDS011;66903;59.926;30.404;2023-05-10T05:18:12;3.42;;;1.23;;
77736;SDS011;66903;59.926;30.404;2023-05-10T05:23:13;3.47;;;1.20;;
77736;SDS011;66903;59.926;30.404;2023-05-10T05:28:13;3.70;;;1.30;;
77736;SDS011;66903;59.926;30.404;2023-05-10T05:33:14;5.10;;;2.50;;
77736;SDS011;66903;59.926;30.404;2023-05-10T05:38:15;4.65;;;1.23;;
77736;SDS011;66903;59.926;30.404;2023-05-10T05:43:16;3.38;;;1.10;;
77736;SDS011;66903;59.926;30.404;2023-05-10T05:48:16;2.85;;;1.13;;
77736;SDS011;66903;59.926;30.404;2023-05-10T05:53:17;2.83;;;1.05;;
77736;SDS011;66903;59.926;30.404;2023-05-10T05:58:17;2.80;;;0.98;;
77736;SDS011;66903;59.926;30.404;2023-05-10T06:03:18;2.97;;;1.00;;
77736;SDS011;66903;59.926;30.404;2023-05-10T06:08:19;2.75;;;0.90;;
77736;SDS011;66903;59.926;30.404;2023-05-10T06:13:20;3.40;;;1.00;;
77736;SDS011;66903;59.926;30.404;2023-05-10T06:18:21;2.90;;;1.00;;
77736;SDS011;66903;59.926;30.404;2023-05-10T06:23:21;2.25;;;0.90;;
77736;SDS011;66903;59.926;30.404;2023-05-10T06:28:22;3.10;;;1.00;;
77736;SDS011;66903;59.926;30.404;2023-05-10T06:33:23;3.15;;;0.90;;
77736;SDS011;66903;59.926;30.404;2023-05-10T06:38:23;2.08;;;0.80;;
77736;SDS011;66903;59.926;30.404;2023-05-10T06:43:24;2.10;;;0.77;;
77736;SDS011;66903;59.926;30.404;2023-05-10T06:48:26;1.90;;;0.80;;
77736;SDS011;66903;59.926;30.404;2023-05-10T06:53:26;2.00;;;0.70;;
77736;SDS011;66903;59.926;30.404;2023-05-10T06:58:27;2.40;;;0.80;;
77736;SDS011;66903;59.926;30.404;2023-05-10T07:03:28;1.90;;;0.70;;
77736;SDS011;66903;59.926;30.404;2023-05-10T07:08:29;6.00;;;0.80;;
77736;SDS011;66903;59.926;30.404;2023-05-10T07:13:31;2.50;;;0.80;;
77736;SDS011;66903;59.926;30.404;2023-05-10T07:18:31;2.35;;;0.80;;
77736;SDS011;66903;59.926;30.404;2023-05-10T07:23:32;1.85;;;0.60;;
77736;SDS011;66903;59.926;30.404;2023-05-10T07:28:32;3.03;;;0.70;;
77736;SDS011;66903;59.926;30.404;2023-05-10T07:33:33;3.28;;;0.95;;
77736;SDS011;66903;59.926;30.404;2023-05-10T07:38:33;2.47;;;0.80;;
77736;SDS011;66903;59.926;30.404;2023-05-10T07:43:34;2.00;;;0.70;;
77736;SDS011;66903;59.926;30.404;2023-05-10T07:48:34;4.05;;;0.63;;
77736;SDS011;66903;59.926;30.404;2023-05-10T07:53:36;1.83;;;0.60;;
77736;SDS011;66903;59.926;30.404;2023-05-10T07:58:37;1.17;;;0.57;;
77736;SDS011;66903;59.926;30.404;2023-05-10T08:03:38;1.45;;;0.60;;
77736;SDS011;66903;59.926;30.404;2023-05-10T08:08:38;1.92;;;0.63;;
77736;SDS011;66903;59.926;30.404;2023-05-10T08:13:39;1.83;;;0.70;;
77736;SDS011;66903;59.926;30.404;2023-05-10T08:18:39;1.70;;;0.70;;
77736;SDS011;66903;59.926;30.404;2023-05-10T08:23:40;1.58;;;0.60;;
77736;SDS011;66903;59.926;30.404;2023-05-10T08:28:41;1.73;;;0.55;;
77736;SDS011;66903;59.926;30.404;2023-05-10T08:33:41;2.30;;;0.60;;
77736;SDS011;66903;59.926;30.404;2023-05-10T08:38:42;2.65;;;0.73;;
77736;SDS011;66903;59.926;30.404;2023-05-10T08:43:42;1.80;;;0.63;;
77736;SDS011;66903;59.926;30.404;2023-05-10T08:48:46;1.65;;;0.68;;
77736;SDS011;66903;59.926;30.404;2023-05-10T08:53:49;1.42;;;0.57;;
77736;SDS011;66903;59.926;30.404;2023-05-10T08:58:50;2.35;;;0.73;;
77736;SDS011;66903;59.926;30.404;2023-05-10T09:03:51;1.23;;;0.40;;
77736;SDS011;66903;59.926;30.404;2023-05-10T09:08:52;1.45;;;0.68;;
77736;SDS011;66903;59.926;30.404;2023-05-10T09:13:53;1.83;;;0.70;;
77736;SDS011;66903;59.926;30.404;2023-05-10T09:18:54;2.67;;;0.65;;
77736;SDS011;66903;59.926;30.404;2023-05-10T09:23:55;1.08;;;0.60;;
77736;SDS011;66903;59.926;30.404;2023-05-10T09:28:56;1.17;;;0.50;;
77736;SDS011;66903;59.926;30.404;2023-05-10T09:34:00;2.25;;;0.70;;
77736;SDS011;66903;59.926;30.404;2023-05-10T09:39:00;1.25;;;0.50;;
77736;SDS011;66903;59.926;30.404;2023-05-10T09:44:00;1.98;;;0.70;;
77736;SDS011;66903;59.926;30.404;2023-05-10T09:49:01;3.75;;;0.75;;
77736;SDS011;66903;59.926;30.404;2023-05-10T09:54:08;4.45;;;0.68;;
77736;SDS011;66903;59.926;30.404;2023-05-10T09:59:16;3.47;;;0.70;;
77736;SDS011;66903;59.926;30.404;2023-05-10T10:04:17;2.97;;;0.60;;
77736;SDS011;66903;59.926;30.404;2023-05-10T10:09:19;2.35;;;0.60;;
77736;SDS011;66903;59.926;30.404;2023-05-10T10:14:21;1.58;;;0.50;;
77736;SDS011;66903;59.926;30.404;2023-05-10T10:19:23;1.85;;;0.70;;
77736;SDS011;66903;59.926;30.404;2023-05-10T10:24:24;2.10;;;0.70;;
77736;SDS011;66903;59.926;30.404;2023-05-10T10:29:33;1.95;;;0.68;;
77736;SDS011;66903;59.926;30.404;2023-05-10T10:34:43;1.85;;;0.60;;
77736;SDS011;66903;59.926;30.404;2023-05-10T10:39:44;0.90;;;0.68;;
77736;SDS011;66903;59.926;30.404;2023-05-10T10:44:44;3.17;;;0.65;;
77736;SDS011;66903;59.926;30.404;2023-05-10T10:49:49;2.15;;;0.68;;
77736;SDS011;66903;59.926;30.404;2023-05-10T10:54:52;2.03;;;0.70;;
77736;SDS011;66903;59.926;30.404;2023-05-10T11:11:01;1.10;;;0.50;;
77736;SDS011;66903;59.926;30.404;2023-05-10T11:27:13;1.92;;;0.60;;
77736;SDS011;66903;59.926;30.404;2023-05-10T11:32:14;2.40;;;0.60;;
77736;SDS011;66903;59.926;30.404;2023-05-10T11:37:14;1.85;;;0.57;;
77736;SDS011;66903;59.926;30.404;2023-05-10T11:42:15;2.53;;;0.73;;
77736;SDS011;66903;59.926;30.404;2023-05-10T11:47:15;1.35;;;0.55;;
77736;SDS011;66903;59.926;30.404;2023-05-10T11:52:17;2.55;;;0.60;;
77736;SDS011;66903;59.926;30.404;2023-05-10T11:57:19;4.25;;;0.55;;
77736;SDS011;66903;59.926;30.404;2023-05-10T12:02:20;3.00;;;0.70;;
77736;SDS011;66903;59.926;30.404;2023-05-10T12:07:21;4.40;;;0.73;;
77736;SDS011;66903;59.926;30.404;2023-05-10T12:12:22;2.03;;;0.70;;
77736;SDS011;66903;59.926;30.404;2023-05-10T12:17:26;1.08;;;0.47;;
77736;SDS011;66903;59.926;30.404;2023-05-10T12:22:27;2.00;;;0.55;;
77736;SDS011;66903;59.926;30.404;2023-05-10T12:27:31;2.00;;;0.70;;
77736;SDS011;66903;59.926;30.404;2023-05-10T12:32:38;1.33;;;0.75;;
77736;SDS011;66903;59.926;30.404;2023-05-10T12:37:41;1.85;;;0.50;;
77736;SDS011;66903;59.926;30.404;2023-05-10T12:42:43;1.85;;;0.55;;
77736;SDS011;66903;59.926;30.404;2023-05-10T12:47:46;3.28;;;0.60;;
77736;SDS011;66903;59.926;30.404;2023-05-10T12:52:46;3.72;;;0.50;;
77736;SDS011;66903;59.926;30.404;2023-05-10T12:57:47;2.95;;;0.60;;
77736;SDS011;66903;59.926;30.404;2023-05-10T13:02:48;1.10;;;0.60;;
77736;SDS011;66903;59.926;30.404;2023-05-10T13:07:48;0.63;;;0.40;;
77736;SDS011;66903;59.926;30.404;2023-05-10T13:12:49;1.27;;;0.47;;
77736;SDS011;66903;59.926;30.404;2023-05-10T13:17:49;0.82;;;0.40;;
77736;SDS011;66903;59.926;30.404;2023-05-10T13:22:50;0.85;;;0.40;;
77736;SDS011;66903;59.926;30.404;2023-05-10T13:27:51;1.15;;;0.50;;
77736;SDS011;66903;59.926;30.404;2023-05-10T13:32:51;6.65;;;0.65;;
77736;SDS011;66903;59.926;30.404;2023-05-10T13:37:52;1.52;;;0.50;;
77736;SDS011;66903;59.926;30.404;2023-05-10T13:42:53;3.72;;;0.68;;
77736;SDS011;66903;59.926;30.404;2023-05-10T13:47:53;3.38;;;0.60;;
77736;SDS011;66903;59.926;30.404;2023-05-10T13:52:54;2.13;;;0.70;;
77736;SDS011;66903;59.926;30.404;2023-05-10T13:57:55;2.05;;;0.90;;
77736;SDS011;66903;59.926;30.404;2023-05-10T14:02:55;3.83;;;0.65;;
77736;SDS011;66903;59.926;30.404;2023-05-10T14:07:56;1.55;;;0.50;;
77736;SDS011;66903;59.926;30.404;2023-05-10T14:12:57;1.75;;;0.60;;
77736;SDS011;66903;59.926;30.404;2023-05-10T14:17:57;1.85;;;0.63;;
77736;SDS011;66903;59.926;30.404;2023-05-10T14:22:58;1.27;;;0.50;;
77736;SDS011;66903;59.926;30.404;2023-05-10T14:27:59;3.53;;;0.63;;
77736;SDS011;66903;59.926;30.404;2023-05-10T14:33:00;2.25;;;0.80;;
77736;SDS011;66903;59.926;30.404;2023-05-10T14:38:03;1.08;;;0.40;;
77736;SDS011;66903;59.926;30.404;2023-05-10T14:43:04;0.68;;;0.38;;
77736;SDS011;66903;59.926;30.404;2023-05-10T14:48:04;1.73;;;0.60;;
77736;SDS011;66903;59.926;30.404;2023-05-10T14:53:05;1.25;;;0.50;;
77736;SDS011;66903;59.926;30.404;2023-05-10T14:58:05;0.68;;;0.45;;
77736;SDS011;66903;59.926;30.404;2023-05-10T15:03:06;1.05;;;0.55;;
77736;SDS011;66903;59.926;30.404;2023-05-10T15:08:06;1.58;;;0.50;;
77736;SDS011;66903;59.926;30.404;2023-05-10T15:13:07;3.75;;;0.73;;
77736;SDS011;66903;59.926;30.404;2023-05-10T15:18:11;4.70;;;0.60;;
77736;SDS011;66903;59.926;30.404;2023-05-10T15:23:11;3.28;;;0.70;;
77736;SDS011;66903;59.926;30.404;2023-05-10T15:28:12;3.70;;;0.77;;
77736;SDS011;66903;59.926;30.404;2023-05-10T15:33:13;1.80;;;0.57;;
77736;SDS011;66903;59.926;30.404;2023-05-10T15:38:13;3.85;;;0.63;;
77736;SDS011;66903;59.926;30.404;2023-05-10T15:43:14;1.48;;;0.55;;
77736;SDS011;66903;59.926;30.404;2023-05-10T15:48:16;1.73;;;0.50;;
77736;SDS011;66903;59.926;30.404;2023-05-10T15:53:16;2.22;;;0.70;;
77736;SDS011;66903;59.926;30.404;2023-05-10T15:58:17;0.82;;;0.40;;
77736;SDS011;66903;59.926;30.404;2023-05-10T16:03:18;1.42;;;0.50;;
77736;SDS011;66903;59.926;30.404;2023-05-10T16:08:19;1.63;;;0.50;;
77736;SDS011;66903;59.926;30.404;2023-05-10T16:13:19;2.92;;;0.68;;
77736;SDS011;66903;59.926;30.404;2023-05-10T16:18:20;1.85;;;0.70;;
77736;SDS011;66903;59.926;30.404;2023-05-10T16:23:21;2.90;;;0.80;;
77736;SDS011;66903;59.926;30.404;2023-05-10T16:28:21;1.80;;;0.70;;
77736;SDS011;66903;59.926;30.404;2023-05-10T16:33:22;3.47;;;0.70;;
77736;SDS011;66903;59.926;30.404;2023-05-10T16:38:23;1.75;;;0.60;;
77736;SDS011;66903;59.926;30.404;2023-05-10T16:43:23;1.95;;;0.55;;
77736;SDS011;66903;59.926;30.404;2023-05-10T16:48:24;2.00;;;0.70;;
77736;SDS011;66903;59.926;30.404;2023-05-10T16:53:24;5.28;;;0.93;;
77736;SDS011;66903;59.926;30.404;2023-05-10T16:58:25;1.73;;;0.60;;
77736;SDS011;66903;59.926;30.404;2023-05-10T17:03:26;3.22;;;0.70;;
77736;SDS011;66903;59.926;30.404;2023-05-10T17:08:26;2.50;;;0.75;;
77736;SDS011;66903;59.926;30.404;2023-05-10T17:13:27;3.15;;;0.80;;
77736;SDS011;66903;59.926;30.404;2023-05-10T17:18:28;1.95;;;0.70;;
77736;SDS011;66903;59.926;30.404;2023-05-10T17:23:28;2.50;;;0.80;;
77736;SDS011;66903;59.926;30.404;2023-05-10T17:28:29;1.85;;;0.70;;
77736;SDS011;66903;59.926;30.404;2023-05-10T17:33:30;1.38;;;0.55;;
77736;SDS011;66903;59.926;30.404;2023-05-10T17:38:30;2.58;;;0.80;;
77736;SDS011;66903;59.926;30.404;2023-05-10T17:43:31;3.15;;;0.90;;
77736;SDS011;66903;59.926;30.404;2023-05-10T17:48:31;4.07;;;0.82;;
77736;SDS011;66903;59.926;30.404;2023-05-10T17:53:32;2.78;;;0.77;;
77736;SDS011;66903;59.926;30.404;2023-05-10T17:58:34;2.85;;;0.95;;
77736;SDS011;66903;59.926;30.404;2023-05-10T18:03:37;5.18;;;1.73;;
77736;SDS011;66903;59.926;30.404;2023-05-10T18:08:37;6.72;;;1.77;;
77736;SDS011;66903;59.926;30.404;2023-05-10T18:13:38;5.57;;;1.67;;
77736;SDS011;66903;59.926;30.404;2023-05-10T18:18:38;5.15;;;1.67;;
77736;SDS011;66903;59.926;30.404;2023-05-10T18:23:39;6.50;;;1.52;;
77736;SDS011;66903;59.926;30.404;2023-05-10T18:28:40;3.20;;;1.05;;
77736;SDS011;66903;59.926;30.404;2023-05-10T18:33:41;3.58;;;1.17;;
77736;SDS011;66903;59.926;30.404;2023-05-10T18:38:41;4.85;;;2.17;;
77736;SDS011;66903;59.926;30.404;2023-05-10T18:43:42;7.15;;;1.25;;
77736;SDS011;66903;59.926;30.404;2023-05-10T18:48:42;2.75;;;0.80;;
77736;SDS011;66903;59.926;30.404;2023-05-10T18:53:43;4.75;;;1.30;;
77736;SDS011;66903;59.926;30.404;2023-05-10T18:58:43;2.55;;;1.02;;
77736;SDS011;66903;59.926;30.404;2023-05-10T19:03:44;3.55;;;0.95;;
77736;SDS011;66903;59.926;30.404;2023-05-10T19:08:45;4.82;;;1.08;;
77736;SDS011;66903;59.926;30.404;2023-05-10T19:13:45;3.72;;;1.00;;
77736;SDS011;66903;59.926;30.404;2023-05-10T19:18:46;2.58;;;0.95;;
77736;SDS011;66903;59.926;30.404;2023-05-10T19:23:46;3.58;;;0.88;;
77736;SDS011;66903;59.926;30.404;2023-05-10T19:28:49;3.72;;;1.08;;
77736;SDS011;66903;59.926;30.404;2023-05-10T19:33:50;6.00;;;1.27;;
77736;SDS011;66903;59.926;30.404;2023-05-10T19:38:51;4.57;;;1.00;;
77736;SDS011;66903;59.926;30.404;2023-05-10T19:43:52;3.25;;;0.80;;
77736;SDS011;66903;59.926;30.404;2023-05-10T19:48:53;4.95;;;1.10;;
77736;SDS011;66903;59.926;30.404;2023-05-10T19:53:53;2.50;;;0.70;;
77736;SDS011;66903;59.926;30.404;2023-05-10T19:58:54;3.85;;;1.35;;
77736;SDS011;66903;59.926;30.404;2023-05-10T20:03:54;3.05;;;0.85;;
77736;SDS011;66903;59.926;30.404;2023-05-10T20:08:55;3.03;;;0.90;;
77736;SDS011;66903;59.926;30.404;2023-05-10T20:13:56;3.80;;;0.90;;
77736;SDS011;66903;59.926;30.404;2023-05-10T20:18:56;4.65;;;0.75;;
77736;SDS011;66903;59.926;30.404;2023-05-10T20:23:57;6.43;;;1.38;;
77736;SDS011;66903;59.926;30.404;2023-05-10T20:28:57;4.97;;;1.23;;
77736;SDS011;66903;59.926;30.404;2023-05-10T20:33:58;4.47;;;1.10;;
77736;SDS011;66903;59.926;30.404;2023-05-10T20:38:58;5.95;;;1.10;;
77736;SDS011;66903;59.926;30.404;2023-05-10T20:43:59;4.78;;;1.15;;
77736;SDS011;66903;59.926;30.404;2023-05-10T20:48:59;5.28;;;0.95;;
77736;SDS011;66903;59.926;30.404;2023-05-10T20:54:00;4.07;;;1.08;;
77736;SDS011;66903;59.926;30.404;2023-05-10T20:59:01;6.03;;;1.20;;
77736;SDS011;66903;59.926;30.404;2023-05-10T21:04:02;3.22;;;0.90;;
77736;SDS011;66903;59.926;30.404;2023-05-10T21:09:03;5.10;;;1.40;;
77736;SDS011;66903;59.926;30.404;2023-05-10T21:14:03;4.30;;;1.30;;
77736;SDS011;66903;59.926;30.404;2023-05-10T21:19:04;3.20;;;1.10;;
77736;SDS011;66903;59.926;30.404;2023-05-10T21:24:06;4.57;;;1.60;;
77736;SDS011;66903;59.926;30.404;2023-05-10T21:29:06;2.92;;;1.05;;
77736;SDS011;66903;59.926;30.404;2023-05-10T21:34:07;3.03;;;0.98;;
77736;SDS011;66903;59.926;30.404;2023-05-10T21:39:07;2.30;;;0.68;;
77736;SDS011;66903;59.926;30.404;2023-05-10T21:44:08;2.72;;;0.93;;
77736;SDS011;66903;59.926;30.404;2023-05-10T21:49:08;3.88;;;1.00;;
77736;SDS011;66903;59.926;30.404;2023-05-10T21:54:09;3.42;;;0.90;;
77736;SDS011;66903;59.926;30.404;2023-05-10T21:59:09;2.40;;;0.85;;
77736;SDS011;66903;59.926;30.404;2023-05-10T22:04:10;2.65;;;0.90;;
77736;SDS011;66903;59.926;30.404;2023-05-10T22:09:10;3.22;;;1.20;;
77736;SDS011;66903;59.926;30.404;2023-05-10T22:14:11;2.30;;;0.80;;
77736;SDS011;66903;59.926;30.404;2023-05-10T22:19:11;3.20;;;0.90;;
77736;SDS011;66903;59.926;30.404;2023-05-10T22:24:12;3.63;;;1.17;;
77736;SDS011;66903;59.926;30.404;2023-05-10T22:29:12;3.25;;;1.05;;
77736;SDS011;66903;59.926;30.404;2023-05-10T22:34:13;3.53;;;0.93;;
77736;SDS011;66903;59.926;30.404;2023-05-10T22:39:14;4.38;;;1.30;;
77736;SDS011;66903;59.926;30.404;2023-05-10T22:44:14;3.13;;;1.08;;
77736;SDS011;66903;59.926;30.404;2023-05-10T22:49:15;2.92;;;0.98;;
77736;SDS011;66903;59.926;30.404;2023-05-10T22:54:15;3.28;;;0.90;;
77736;SDS011;66903;59.926;30.404;2023-05-10T22:59:16;3.33;;;1.00;;
77736;SDS011;66903;59.926;30.404;2023-05-10T23:04:16;2.58;;;0.90;;
77736;SDS011;66903;59.926;30.404;2023-05-10T23:09:17;2.80;;;0.88;;
77736;SDS011;66903;59.926;30.404;2023-05-10T23:14:17;2.85;;;0.82;;
77736;SDS011;66903;59.926;30.404;2023-05-10T23:19:18;2.53;;;0.88;;
77736;SDS011;66903;59.926;30.404;2023-05-10T23:24:18;3.45;;;1.00;;
77736;SDS011;66903;59.926;30.404;2023-05-10T23:29:19;3.13;;;0.90;;
77736;SDS011;66903;59.926;30.404;2023-05-10T23:34:19;3.42;;;1.10;;
77736;SDS011;66903;59.926;30.404;2023-05-10T23:39:20;3.75;;;1.00;;
77736;SDS011;66903;59.926;30.404;2023-05-10T23:44:21;3.00;;;0.80;;
77736;SDS011;66903;59.926;30.404;2023-05-10T23:49:21;2.05;;;0.80;;
77736;SDS011;66903;59.926;30.404;2023-05-10T23:54:22;2.95;;;0.82;;
77736;SDS011;66903;59.926;30.404;2023-05-10T23:59:22;3.00;;;0.98;;
